Murdock, Minnesota
Current Conditions -  °F | °C
As of 1:55 AM on Tuesday 21 Oct 2014 (Local Time) from KBDH Reporting Station
Clear Clear  
Wind Chill: 41°   Ceiling: Unl
Heat Index: 45°   Visibility: 10mi
Dew Point: 37°   Wind: 7mph
Humidity: 76%   Direction: 90°E
Pressure: 30.11"   Gusts: NA
Location:  45.22°N, 95.39°W
Report Text: KBDH 210655Z AUTO 09006KT 10SM CLR 07/03 A3011 RMK AO2
Loading
Personal Weather Stations






























Interactive Weather Map
Tropical Storm Tracking
New forecast layout! Learn more

10-Day Weather Forecast

Advertisements
Track Severe Weather on mobile